SBRJ/SDU METAR and TAF weather

Enter ICAO airport designator
Station Type Date Time Source
SBRJ METAR 2022/12/10 03:00 UTC NOAA

SBRJ 100300Z 12002KT 9999 FEW012 SCT100 22/21 Q1011


Station Type Date Time Source
SBRJ Decoded METAR 2022/12/10 03:00 UTC NOAA

Rio De Janeiro Aeroporto , Brazil (SBRJ) 22-54S 043-10W
Dec 09, 2022 - 10:00 PM EST / 2022.12.10 0300 UTC
Wind: from the ESE (120 degrees) at 2 MPH (2 KT):0
Visibility: greater than 7 mile(s):0
Sky conditions: partly cloudy
Temperature: 71 F (22 C)
Dew Point: 69 F (21 C)
Relative Humidity: 94%
Pressure (altimeter): 29.85 in. Hg (1011 hPa)
ob: SBRJ 100300Z 12002KT 9999 FEW012 SCT100 22/21 Q1011
cycle: 3

Station Type Date Time Source
SBRJ TAF 2022/12/10 06:57 UTC NOAA

TAF SBRJ 100055Z 1006/1018 33005KT 8000 FEW020 TN21/1008Z TX29/1015Z
TEMPO 1006/1012 4000 BR SCT006 BKN012
BECMG 1015/1017 16010KT SCT040
RMK PFV

Example: see airport list